Time;durP1;ratioP1;P1;durP2;ratioP2;P2;SDS_P1;SDS_P2;PMS_P1;PMS_P2;Temp;Humidity;BMP_temperature;BMP_pressure;BME280_temperature;BME280_humidity;BME280_pressure;Samples;Min_cycle;Max_cycle;Signal;HPM_P1;HPM_P2
2022/11/15 00:01:56;;;;;;;34.40;21.33;;;6.20;99.90;;;;;;5009639;28;20227;-54
2022/11/15 00:04:43;;;;;;;31.83;20.27;;;6.20;99.90;;;;;;5018422;28;20588;-55
2022/11/15 00:07:29;;;;;;;31.73;20.37;;;6.20;99.90;;;;;;5008707;28;20231;-56
2022/11/15 00:10:14;;;;;;;34.43;20.73;;;6.20;99.90;;;;;;5016065;28;20335;-56
2022/11/15 00:13:01;;;;;;;30.23;19.63;;;6.20;99.90;;;;;;5018935;28;20211;-56
2022/11/15 00:15:47;;;;;;;33.20;20.57;;;6.10;99.90;;;;;;5020024;28;20269;-56
2022/11/15 00:18:33;;;;;;;34.43;19.43;;;6.10;99.90;;;;;;5023397;28;20215;-56
2022/11/15 00:21:20;;;;;;;33.50;20.67;;;6.10;99.90;;;;;;5026712;28;20211;-56
2022/11/15 00:24:07;;;;;;;31.97;20.33;;;6.10;99.90;;;;;;5009597;28;20231;-54
2022/11/15 00:26:52;;;;;;;30.87;19.30;;;6.10;99.90;;;;;;5014423;28;20214;-56
2022/11/15 00:29:38;;;;;;;29.97;19.67;;;6.10;99.90;;;;;;5025137;28;20227;-57
2022/11/15 00:32:24;;;;;;;31.93;19.50;;;6.10;99.90;;;;;;5026360;28;20230;-55
2022/11/15 00:35:10;;;;;;;33.40;19.70;;;6.00;99.90;;;;;;5025128;28;20234;-57
2022/11/15 00:37:57;;;;;;;33.00;19.60;;;6.00;99.90;;;;;;5007524;28;20227;-57
2022/11/15 00:40:42;;;;;;;30.93;19.10;;;6.00;99.90;;;;;;5021821;28;20231;-57
2022/11/15 00:43:28;;;;;;;34.00;20.13;;;6.00;99.90;;;;;;5016838;28;20238;-56
2022/11/15 00:46:14;;;;;;;35.17;21.07;;;6.00;99.90;;;;;;5026130;28;20563;-56
2022/11/15 00:48:59;;;;;;;33.27;19.83;;;6.00;99.90;;;;;;5018594;28;20207;-58
2022/11/15 00:51:45;;;;;;;32.47;20.40;;;6.10;99.90;;;;;;5023411;28;20408;-57
2022/11/15 00:54:32;;;;;;;36.87;20.53;;;6.10;99.90;;;;;;5011924;28;20235;-56
2022/11/15 00:57:18;;;;;;;35.80;19.80;;;6.00;99.90;;;;;;5013681;28;20228;-57
2022/11/15 01:00:05;;;;;;;37.37;19.83;;;6.00;99.90;;;;;;5016244;28;20289;-55
2022/11/15 01:02:51;;;;;;;33.87;20.43;;;6.00;99.90;;;;;;5021926;28;20702;-57
2022/11/15 01:05:38;;;;;;;34.43;20.40;;;6.00;99.90;;;;;;5025012;28;20292;-56
2022/11/15 01:08:24;;;;;;;38.27;20.40;;;6.00;99.90;;;;;;5026188;28;20211;-55
2022/11/15 01:11:13;;;;;;;33.80;20.40;;;5.90;99.90;;;;;;5009376;28;20226;-57
2022/11/15 01:13:59;;;;;;;31.40;19.73;;;5.90;99.90;;;;;;5015764;28;20289;-57
2022/11/15 01:16:45;;;;;;;32.77;20.30;;;5.90;99.90;;;;;;5018577;28;20721;-55
2022/11/15 01:19:30;;;;;;;31.90;19.93;;;5.90;99.90;;;;;;5026101;28;20203;-57
2022/11/15 01:22:17;;;;;;;35.93;20.43;;;5.90;99.90;;;;;;5025541;28;20206;-56
2022/11/15 01:25:02;;;;;;;32.53;20.10;;;5.90;99.90;;;;;;5004656;28;20250;-56
2022/11/15 01:27:49;;;;;;;31.03;19.90;;;5.90;99.90;;;;;;5017310;28;20234;-55
2022/11/15 01:30:37;;;;;;;32.73;20.70;;;5.90;99.90;;;;;;5006027;28;20707;-56
2022/11/15 01:33:23;;;;;;;32.53;20.07;;;5.90;99.90;;;;;;5025479;28;20215;-58
2022/11/15 01:36:13;;;;;;;29.10;18.93;;;5.90;99.90;;;;;;5024827;28;20573;-56
2022/11/15 01:39:00;;;;;;;31.87;20.43;;;5.80;99.90;;;;;;5021657;28;20210;-57
2022/11/15 01:41:46;;;;;;;33.77;20.43;;;5.80;99.90;;;;;;5007894;28;20218;-57
2022/11/15 01:44:44;;;;;;;35.93;19.77;;;5.70;99.90;;;;;;5011852;28;20734;-57
2022/11/15 01:47:33;;;;;;;32.97;19.53;;;5.70;99.90;;;;;;5025460;28;20289;-57
2022/11/15 01:50:23;;;;;;;28.87;18.37;;;5.70;99.90;;;;;;5025217;28;20277;-56
2022/11/15 01:53:10;;;;;;;36.10;20.13;;;5.60;99.90;;;;;;5023225;28;20569;-53
2022/11/15 01:55:56;;;;;;;33.80;19.47;;;5.60;99.90;;;;;;5006639;28;20235;-56
2022/11/15 01:58:43;;;;;;;33.73;19.73;;;5.60;99.90;;;;;;5020793;28;20258;-56
2022/11/15 02:01:33;;;;;;;29.30;19.27;;;5.60;99.90;;;;;;5024872;28;20671;-56
2022/11/15 02:04:24;;;;;;;31.00;19.80;;;5.50;99.90;;;;;;5008821;28;20281;-56
2022/11/15 02:07:13;;;;;;;30.80;19.03;;;5.50;99.90;;;;;;5021753;28;20294;-57
2022/11/15 02:10:00;;;;;;;27.20;18.70;;;5.50;99.90;;;;;;5012727;28;20849;-56
2022/11/15 02:12:46;;;;;;;29.87;18.03;;;5.50;99.90;;;;;;5007438;28;20291;-54
2022/11/15 02:15:45;;;;;;;28.13;17.87;;;5.50;99.90;;;;;;5018889;28;20323;-56
2022/11/15 02:18:38;;;;;;;28.13;17.87;;;5.50;99.90;;;;;;5024757;28;20214;-56
2022/11/15 02:21:33;;;;;;;27.03;17.87;;;5.40;99.90;;;;;;5024541;28;20215;-57
2022/11/15 02:24:58;;;;;;;25.43;17.07;;;5.40;99.90;;;;;;5024417;28;20357;-56
2022/11/15 02:28:11;;;;;;;27.33;16.93;;;5.40;99.90;;;;;;5011446;28;20215;-58
2022/11/15 02:31:05;;;;;;;30.43;18.73;;;5.30;99.90;;;;;;5013673;28;20227;-56
2022/11/15 02:33:57;;;;;;;24.30;16.53;;;5.30;99.90;;;;;;5017203;28;20230;-56
2022/11/15 02:36:55;;;;;;;25.00;16.73;;;5.30;99.90;;;;;;5021920;28;20214;-56
2022/11/15 02:39:47;;;;;;;25.27;16.97;;;5.20;99.90;;;;;;5019515;28;20262;-55
2022/11/15 02:45:47;;;;;;;26.17;17.27;;;5.20;99.90;;;;;;5016117;28;20230;-58
2022/11/15 02:48:36;;;;;;;25.70;17.97;;;5.20;99.90;;;;;;5013881;28;20575;-57
2022/11/15 02:51:22;;;;;;;28.30;16.47;;;5.10;99.90;;;;;;5023567;28;20653;-56
2022/11/15 02:54:11;;;;;;;32.83;16.67;;;5.10;99.90;;;;;;5022216;28;20527;-53
2022/11/15 02:57:01;;;;;;;23.30;16.30;;;5.00;99.90;;;;;;5020182;28;20207;-57
2022/11/15 03:00:06;;;;;;;27.77;18.00;;;5.00;99.90;;;;;;5005795;28;20223;-57
2022/11/15 03:03:17;;;;;;;25.97;17.17;;;4.90;99.90;;;;;;5006053;28;20227;-57
2022/11/15 03:06:14;;;;;;;27.23;16.47;;;4.90;99.90;;;;;;5021016;28;20219;-55
2022/11/15 03:09:08;;;;;;;30.47;16.97;;;4.80;99.90;;;;;;5017393;28;20215;-54
2022/11/15 03:12:00;;;;;;;22.87;15.10;;;4.80;99.90;;;;;;5018745;28;20849;-54
2022/11/15 03:14:54;;;;;;;28.10;16.63;;;4.80;99.90;;;;;;5006454;28;20230;-57
2022/11/15 03:17:43;;;;;;;29.23;16.77;;;4.80;99.90;;;;;;5012031;28;20285;-55
2022/11/15 03:20:31;;;;;;;26.63;15.90;;;4.80;99.90;;;;;;5019969;28;20605;-57
2022/11/15 03:23:18;;;;;;;24.27;16.10;;;4.70;99.90;;;;;;5023469;28;20566;-54
2022/11/15 03:26:08;;;;;;;30.97;17.03;;;4.70;99.90;;;;;;5020949;28;20215;-58
2022/11/15 03:28:56;;;;;;;21.20;15.27;;;4.70;99.90;;;;;;5019538;28;20339;-56
2022/11/15 03:31:49;;;;;;;25.57;16.03;;;4.60;99.90;;;;;;5004133;28;20239;-57
2022/11/15 03:34:39;;;;;;;25.80;15.70;;;4.60;99.90;;;;;;5017998;28;20274;-54
2022/11/15 03:37:32;;;;;;;27.03;16.27;;;4.60;99.90;;;;;;5022004;28;20292;-57
2022/11/15 03:40:26;;;;;;;23.93;16.30;;;4.60;99.90;;;;;;5021345;28;20203;-57
2022/11/15 03:43:21;;;;;;;24.80;16.00;;;4.60;99.90;;;;;;5021784;28;20238;-55
2022/11/15 03:46:13;;;;;;;22.37;15.80;;;4.60;99.90;;;;;;5006527;28;21014;-57
2022/11/15 03:49:05;;;;;;;24.30;14.87;;;4.50;99.90;;;;;;5002914;28;20347;-56
2022/11/15 03:51:51;;;;;;;22.37;15.47;;;4.60;99.90;;;;;;5017180;28;20246;-56
2022/11/15 03:54:37;;;;;;;21.77;14.83;;;4.40;99.90;;;;;;5024367;28;20353;-55
2022/11/15 03:57:23;;;;;;;23.20;15.47;;;4.50;99.90;;;;;;5027331;28;20234;-57
2022/11/15 04:00:11;;;;;;;22.20;15.50;;;4.50;99.90;;;;;;5025611;28;20210;-54
2022/11/15 04:02:56;;;;;;;24.67;15.07;;;4.50;99.90;;;;;;5008212;28;20355;-57
2022/11/15 04:05:42;;;;;;;25.63;16.13;;;4.50;99.90;;;;;;5014982;28;20231;-58
2022/11/15 04:08:27;;;;;;;22.97;15.10;;;4.50;99.90;;;;;;5014466;28;20707;-57
2022/11/15 04:11:13;;;;;;;20.03;13.87;;;4.50;99.90;;;;;;5021268;28;20305;-56
2022/11/15 04:14:00;;;;;;;23.33;14.67;;;4.50;99.90;;;;;;5026332;28;20277;-57
2022/11/15 04:16:46;;;;;;;23.70;15.20;;;4.50;99.90;;;;;;5010789;28;20532;-57
2022/11/15 04:25:38;;;;;;;24.57;14.50;;;4.50;99.90;;;;;;5023519;28;20226;-53
2022/11/15 04:28:24;;;;;;;22.80;14.63;;;4.50;99.90;;;;;;5023212;28;20232;-54
2022/11/15 04:31:11;;;;;;;24.37;15.60;;;4.50;99.90;;;;;;5025554;28;20255;-53
2022/11/15 04:33:57;;;;;;;24.60;15.47;;;4.50;99.90;;;;;;5010761;28;20239;-54
2022/11/15 04:39:46;;;;;;;26.20;16.17;;;4.50;99.90;;;;;;5025246;28;20211;-49
2022/11/15 04:42:32;;;;;;;24.33;15.23;;;4.50;99.90;;;;;;5022167;28;20285;-53
2022/11/15 04:45:18;;;;;;;22.73;15.07;;;4.60;99.90;;;;;;5019445;28;20735;-56
2022/11/15 04:48:06;;;;;;;22.00;14.83;;;4.60;99.90;;;;;;5025605;28;20358;-52
2022/11/15 04:50:52;;;;;;;23.30;15.03;;;4.60;99.90;;;;;;5017203;28;20219;-55
2022/11/15 04:53:38;;;;;;;23.50;15.63;;;4.70;99.90;;;;;;5022578;28;20222;-53
2022/11/15 04:56:24;;;;;;;22.00;15.40;;;4.80;99.90;;;;;;5022345;28;20206;-55
2022/11/15 04:59:10;;;;;;;21.33;14.60;;;4.80;99.90;;;;;;5025493;28;20452;-55
2022/11/15 05:01:55;;;;;;;25.40;15.83;;;4.90;99.90;;;;;;5018296;28;20342;-54
2022/11/15 05:04:41;;;;;;;23.17;14.87;;;4.90;99.90;;;;;;5008445;28;22460;-53
2022/11/15 05:07:27;;;;;;;23.53;15.83;;;4.90;99.90;;;;;;5007179;28;20939;-55
2022/11/15 05:10:12;;;;;;;22.77;14.83;;;5.00;99.90;;;;;;5024074;28;20210;-54
2022/11/15 05:12:58;;;;;;;24.03;14.97;;;5.00;99.90;;;;;;5003555;28;20211;-56
2022/11/15 05:15:44;;;;;;;24.27;14.83;;;5.10;99.90;;;;;;5012125;28;20273;-52
2022/11/15 05:18:30;;;;;;;22.70;14.73;;;5.10;99.90;;;;;;5016357;28;20219;-54
2022/11/15 05:21:17;;;;;;;24.97;15.10;;;5.20;99.90;;;;;;4995481;28;20219;-56
2022/11/15 05:24:03;;;;;;;24.80;15.03;;;5.30;99.90;;;;;;5023657;28;21077;-56
2022/11/15 05:26:49;;;;;;;25.43;16.23;;;5.40;99.90;;;;;;5023827;28;20219;-52
2022/11/15 05:29:35;;;;;;;27.30;15.87;;;5.50;99.90;;;;;;5012715;28;20912;-51
2022/11/15 05:32:21;;;;;;;24.93;16.17;;;5.60;99.90;;;;;;5017725;28;20303;-54
2022/11/15 05:35:11;;;;;;;24.60;16.53;;;5.60;99.90;;;;;;5007186;28;20262;-56
2022/11/15 05:37:57;;;;;;;26.20;16.50;;;5.70;99.90;;;;;;5016520;28;20218;-55
2022/11/15 05:40:44;;;;;;;24.43;16.27;;;5.70;99.90;;;;;;5006271;28;20327;-49
2022/11/15 05:43:35;;;;;;;23.77;16.57;;;5.70;99.90;;;;;;5015618;28;20240;-54
2022/11/15 05:46:20;;;;;;;27.43;16.57;;;5.80;99.90;;;;;;5007754;28;20473;-53
2022/11/15 05:49:09;;;;;;;28.17;16.83;;;5.80;99.90;;;;;;5009307;28;20339;-54
2022/11/15 05:51:56;;;;;;;28.03;15.33;;;5.80;99.90;;;;;;5001268;28;20250;-50
2022/11/15 05:54:43;;;;;;;26.13;16.60;;;5.90;99.90;;;;;;5016665;28;20234;-53
2022/11/15 05:57:29;;;;;;;25.70;15.57;;;5.90;99.90;;;;;;5020651;28;20211;-52
2022/11/15 06:00:15;;;;;;;25.30;15.67;;;5.90;99.90;;;;;;5017525;28;20233;-50
2022/11/15 06:03:00;;;;;;;27.17;16.60;;;5.90;99.90;;;;;;5017166;28;20719;-51
2022/11/15 06:05:46;;;;;;;23.40;16.10;;;6.00;99.90;;;;;;5016331;28;20434;-51
2022/11/15 06:08:31;;;;;;;27.47;16.23;;;6.00;99.90;;;;;;4999153;28;20242;-53
2022/11/15 06:11:18;;;;;;;26.30;15.93;;;6.10;99.90;;;;;;5014676;28;20220;-53
2022/11/15 06:14:04;;;;;;;28.10;16.50;;;6.10;99.90;;;;;;5017586;28;20236;-53
2022/11/15 06:16:49;;;;;;;24.47;15.07;;;6.10;99.90;;;;;;5014777;28;20533;-53
2022/11/15 06:19:35;;;;;;;25.40;16.13;;;6.10;99.90;;;;;;5019155;28;20215;-51
2022/11/15 06:22:20;;;;;;;25.67;16.70;;;6.20;99.90;;;;;;5002839;28;20214;-54
2022/11/15 06:25:06;;;;;;;25.37;15.87;;;6.20;99.90;;;;;;5022537;28;20266;-53
2022/11/15 06:27:54;;;;;;;26.50;16.53;;;6.20;99.90;;;;;;5010180;28;20215;-53
2022/11/15 06:30:40;;;;;;;24.43;15.63;;;6.30;99.90;;;;;;5014639;28;20235;-57
2022/11/15 06:33:26;;;;;;;28.33;16.00;;;6.30;99.90;;;;;;5006733;28;20664;-55
2022/11/15 06:36:15;;;;;;;24.90;16.40;;;6.40;99.90;;;;;;5017359;28;20285;-55
2022/11/15 06:39:01;;;;;;;24.03;15.57;;;6.40;99.90;;;;;;5015041;28;20219;-52
2022/11/15 06:41:48;;;;;;;23.10;15.03;;;6.40;99.90;;;;;;5016966;28;20234;-58
2022/11/15 06:44:34;;;;;;;25.90;15.33;;;6.40;99.90;;;;;;5016717;28;20265;-56
2022/11/15 06:47:19;;;;;;;24.10;15.37;;;6.50;99.90;;;;;;5013070;28;20207;-53
2022/11/15 06:50:06;;;;;;;25.00;15.27;;;6.50;99.90;;;;;;5018268;28;20207;-55
2022/11/15 06:52:51;;;;;;;25.43;15.43;;;6.50;99.90;;;;;;5004969;28;23655;-54
2022/11/15 06:55:37;;;;;;;22.37;15.40;;;6.50;99.90;;;;;;5008674;28;20279;-56
2022/11/15 06:58:23;;;;;;;23.40;14.93;;;6.60;99.90;;;;;;5015934;28;20665;-56
2022/11/15 07:01:11;;;;;;;24.67;15.63;;;6.50;99.90;;;;;;5020728;28;20218;-54
2022/11/15 07:03:57;;;;;;;26.23;15.90;;;6.60;99.90;;;;;;5005648;28;20278;-57
2022/11/15 07:06:42;;;;;;;22.60;15.40;;;6.60;99.90;;;;;;5008467;28;20332;-58
2022/11/15 07:09:27;;;;;;;26.37;16.30;;;6.60;99.90;;;;;;4994984;28;20338;-55
2022/11/15 07:12:13;;;;;;;22.90;16.10;;;6.70;99.90;;;;;;5004489;28;20358;-57
2022/11/15 07:14:58;;;;;;;27.37;15.57;;;6.70;99.90;;;;;;5012619;28;20226;-55
2022/11/15 07:17:46;;;;;;;28.20;16.10;;;6.70;99.90;;;;;;5017788;28;20211;-58
2022/11/15 07:20:31;;;;;;;26.77;15.23;;;6.70;99.90;;;;;;5020718;28;20214;-56
2022/11/15 07:23:16;;;;;;;22.43;15.43;;;6.80;99.90;;;;;;5020070;28;20584;-56
2022/11/15 07:26:02;;;;;;;23.57;14.60;;;6.80;99.90;;;;;;4998183;28;20277;-57
2022/11/15 07:28:48;;;;;;;24.07;15.37;;;6.80;99.90;;;;;;5008150;28;20603;-55
2022/11/15 07:31:34;;;;;;;20.97;14.37;;;6.90;99.90;;;;;;5009208;28;20222;-57
2022/11/15 07:34:21;;;;;;;22.07;14.87;;;6.90;99.90;;;;;;5014351;28;20310;-52
2022/11/15 07:37:07;;;;;;;25.23;15.13;;;6.90;99.90;;;;;;5009407;28;20208;-57
2022/11/15 07:39:53;;;;;;;24.30;15.90;;;7.00;99.90;;;;;;4992954;28;20323;-56
2022/11/15 07:45:42;;;;;;;22.93;15.17;;;7.00;99.90;;;;;;5000591;28;20971;-55
2022/11/15 07:48:27;;;;;;;21.33;14.37;;;7.10;99.90;;;;;;5019869;28;20556;-56
2022/11/15 07:51:15;;;;;;;22.53;15.43;;;7.10;99.90;;;;;;5022384;28;20338;-56
2022/11/15 07:54:00;;;;;;;22.77;15.37;;;7.10;99.90;;;;;;5023164;28;20286;-54
2022/11/15 07:56:46;;;;;;;21.53;14.53;;;7.10;99.90;;;;;;5006536;28;20218;-57
2022/11/15 07:59:32;;;;;;;25.03;15.17;;;7.10;99.90;;;;;;5018862;28;20281;-56
2022/11/15 08:02:17;;;;;;;20.07;13.90;;;7.10;99.90;;;;;;5014566;28;20339;-57
2022/11/15 08:05:04;;;;;;;24.07;14.93;;;7.20;99.90;;;;;;5023268;28;20226;-55
2022/11/15 08:07:51;;;;;;;22.60;14.83;;;7.20;99.90;;;;;;5022073;28;20207;-54
2022/11/15 08:10:37;;;;;;;20.10;14.50;;;7.20;99.90;;;;;;5019146;28;20206;-55
2022/11/15 08:13:23;;;;;;;22.63;14.87;;;7.20;99.90;;;;;;5007307;28;20238;-56
2022/11/15 08:16:11;;;;;;;24.60;14.87;;;7.30;99.90;;;;;;5015587;28;20207;-57
2022/11/15 08:18:57;;;;;;;22.20;15.17;;;7.30;99.90;;;;;;5014253;28;20215;-55
2022/11/15 08:21:43;;;;;;;20.80;14.63;;;7.30;99.90;;;;;;5022700;28;20218;-56
2022/11/15 08:24:30;;;;;;;23.07;15.23;;;7.30;99.90;;;;;;5020517;28;20227;-57
2022/11/15 08:27:16;;;;;;;22.93;14.83;;;7.40;99.90;;;;;;5004355;28;20273;-55
2022/11/15 08:30:02;;;;;;;25.10;15.30;;;7.40;99.90;;;;;;5021510;28;20220;-56
2022/11/15 08:32:48;;;;;;;20.90;14.90;;;7.40;99.90;;;;;;5011260;28;20227;-55
2022/11/15 08:35:34;;;;;;;20.27;13.77;;;7.50;99.90;;;;;;5003320;28;20904;-57
2022/11/15 08:38:20;;;;;;;21.17;14.30;;;7.50;99.90;;;;;;5018932;28;20211;-56
2022/11/15 08:41:08;;;;;;;18.80;13.60;;;7.50;99.90;;;;;;5023442;28;20227;-56
2022/11/15 08:43:53;;;;;;;18.50;13.53;;;7.50;99.90;;;;;;5011071;28;20433;-56
2022/11/15 08:46:39;;;;;;;21.40;14.17;;;7.60;99.90;;;;;;5019683;28;20226;-54
2022/11/15 08:49:25;;;;;;;19.03;13.40;;;7.60;99.90;;;;;;5017484;28;20219;-57
2022/11/15 08:52:10;;;;;;;22.87;14.47;;;7.70;99.90;;;;;;5022856;28;20226;-56
2022/11/15 08:54:56;;;;;;;21.30;14.07;;;7.70;99.90;;;;;;5026250;28;20698;-57
2022/11/15 08:57:43;;;;;;;21.27;13.03;;;7.70;99.90;;;;;;5015023;28;20319;-56
2022/11/15 09:00:29;;;;;;;20.47;13.67;;;7.80;99.90;;;;;;4989549;28;20253;-57
2022/11/15 09:03:15;;;;;;;20.17;13.63;;;7.80;99.90;;;;;;5012332;28;20207;-53
2022/11/15 09:06:01;;;;;;;23.73;13.80;;;7.80;99.90;;;;;;5012243;28;20226;-49
2022/11/15 09:08:48;;;;;;;20.93;13.60;;;7.80;99.90;;;;;;5006538;28;20215;-55
2022/11/15 09:11:34;;;;;;;20.20;14.73;;;7.90;99.90;;;;;;5014210;28;20207;-52
2022/11/15 09:14:20;;;;;;;19.60;13.17;;;7.90;99.90;;;;;;5003862;28;20899;-53
2022/11/15 09:17:09;;;;;;;21.87;13.43;;;7.90;99.90;;;;;;5013792;28;20286;-51
2022/11/15 09:19:54;;;;;;;18.00;13.27;;;8.00;99.90;;;;;;5014469;28;20996;-54
2022/11/15 09:22:40;;;;;;;22.93;15.27;;;8.00;99.90;;;;;;5003362;28;20220;-55
2022/11/15 09:25:26;;;;;;;18.67;13.83;;;8.00;99.90;;;;;;5013376;28;20281;-54
2022/11/15 09:28:11;;;;;;;19.37;12.93;;;8.00;99.90;;;;;;5016583;28;20211;-52
2022/11/15 09:30:59;;;;;;;18.83;12.43;;;8.10;99.90;;;;;;5004829;28;20223;-51
2022/11/15 09:33:45;;;;;;;19.23;13.50;;;8.10;99.90;;;;;;5006897;28;20239;-50
2022/11/15 09:36:31;;;;;;;17.90;12.57;;;8.10;99.90;;;;;;5007052;28;20330;-52
2022/11/15 09:39:17;;;;;;;16.93;12.13;;;8.20;99.90;;;;;;5014695;28;20737;-53
2022/11/15 09:42:22;;;;;;;22.30;12.93;;;8.20;99.90;;;;;;5011499;28;20199;-51
2022/11/15 09:45:17;;;;;;;17.00;12.50;;;8.20;99.90;;;;;;5002837;28;20723;-53
2022/11/15 09:48:26;;;;;;;15.80;12.10;;;8.30;99.90;;;;;;5013609;28;20219;-50
2022/11/15 09:51:27;;;;;;;16.13;11.93;;;8.30;99.90;;;;;;5006354;28;20228;-51
2022/11/15 09:54:02;;;;;;;18.80;13.07;;;8.40;99.90;;;;;;5012316;28;20220;-53
2022/11/15 09:56:31;;;;;;;18.63;13.27;;;8.40;99.90;;;;;;5007593;28;20214;-51
2022/11/15 09:59:11;;;;;;;20.93;13.10;;;8.50;99.90;;;;;;5013111;28;20204;-54
2022/11/15 10:01:46;;;;;;;18.13;12.57;;;8.50;99.90;;;;;;4999823;28;20207;-54
2022/11/15 10:04:15;;;;;;;18.30;13.10;;;8.60;99.90;;;;;;5022255;28;20223;-52
2022/11/15 10:06:47;;;;;;;18.83;12.33;;;8.60;99.90;;;;;;5008143;28;20283;-52
2022/11/15 10:09:20;;;;;;;16.40;13.07;;;8.60;99.90;;;;;;5009567;28;20234;-51
2022/11/15 10:11:46;;;;;;;19.50;12.43;;;8.70;99.90;;;;;;5009744;28;20404;-50
2022/11/15 10:14:16;;;;;;;20.10;12.60;;;8.70;99.90;;;;;;5014525;28;20221;-52
2022/11/15 10:17:19;;;;;;;18.73;12.97;;;8.80;99.90;;;;;;5003360;28;21015;-52
2022/11/15 10:19:59;;;;;;;20.23;12.23;;;8.80;99.90;;;;;;5012920;28;20283;-51
2022/11/15 10:22:29;;;;;;;18.00;12.33;;;8.80;99.90;;;;;;5002714;28;20715;-55
2022/11/15 10:25:21;;;;;;;17.23;11.50;;;8.90;99.90;;;;;;5009954;28;20208;-52
2022/11/15 10:27:55;;;;;;;16.90;11.97;;;9.00;99.90;;;;;;5014859;28;20221;-53
2022/11/15 10:30:22;;;;;;;16.03;12.57;;;9.00;99.90;;;;;;5006104;28;20279;-53
2022/11/15 10:32:50;;;;;;;19.17;12.10;;;9.10;99.90;;;;;;5006302;28;20398;-48
2022/11/15 10:35:24;;;;;;;18.23;12.17;;;9.10;99.90;;;;;;5016061;28;20246;-53
2022/11/15 10:37:52;;;;;;;18.03;11.60;;;9.10;99.90;;;;;;5010772;28;20206;-51
2022/11/15 10:40:21;;;;;;;17.53;11.87;;;9.20;99.90;;;;;;5016466;28;20201;-54
2022/11/15 10:42:49;;;;;;;15.83;11.37;;;9.20;99.90;;;;;;5009115;28;20711;-53
2022/11/15 10:45:28;;;;;;;15.27;11.37;;;9.20;99.90;;;;;;5016482;28;20216;-51
2022/11/15 10:48:24;;;;;;;15.43;11.50;;;9.30;99.90;;;;;;5004278;28;20222;-52
2022/11/15 10:50:55;;;;;;;16.60;11.87;;;9.30;99.90;;;;;;5012289;28;20191;-52
2022/11/15 10:53:30;;;;;;;13.20;11.13;;;9.40;99.90;;;;;;5006305;28;20212;-51
2022/11/15 10:56:01;;;;;;;13.20;10.60;;;9.40;99.90;;;;;;5008453;28;20963;-53
2022/11/15 10:58:36;;;;;;;13.60;11.70;;;9.40;99.90;;;;;;5008746;28;20573;-53
2022/11/15 11:01:14;;;;;;;15.03;11.43;;;9.50;99.90;;;;;;5014722;28;20215;-50
2022/11/15 11:03:44;;;;;;;14.90;11.33;;;9.50;99.90;;;;;;4999230;28;20211;-52
2022/11/15 11:06:15;;;;;;;14.83;11.40;;;9.50;99.90;;;;;;5015443;28;20199;-54
2022/11/15 11:08:55;;;;;;;14.67;10.50;;;9.60;99.90;;;;;;4998803;28;20271;-50
2022/11/15 11:11:22;;;;;;;16.07;11.60;;;9.60;99.90;;;;;;5013704;28;20204;-55
2022/11/15 11:13:49;;;;;;;14.73;10.23;;;9.70;99.90;;;;;;5007155;28;20305;-48
2022/11/15 11:16:35;;;;;;;14.40;9.97;;;9.70;99.90;;;;;;5012618;28;20219;-52
2022/11/15 11:19:09;;;;;;;13.93;10.83;;;9.80;99.90;;;;;;5002841;28;20214;-50
2022/11/15 11:21:46;;;;;;;19.10;10.53;;;9.80;99.90;;;;;;5009243;28;20244;-53
2022/11/15 11:24:25;;;;;;;14.00;10.33;;;9.90;99.90;;;;;;5011219;28;20368;-50
2022/11/15 11:27:03;;;;;;;13.03;10.70;;;9.90;99.90;;;;;;5010948;28;20275;-51
2022/11/15 11:29:42;;;;;;;18.10;10.30;;;9.90;99.90;;;;;;5006620;28;20199;-52
2022/11/15 11:32:24;;;;;;;16.27;9.60;;;10.00;99.90;;;;;;5017108;28;20211;-52
2022/11/15 11:34:57;;;;;;;13.80;9.83;;;10.00;99.90;;;;;;5014360;28;20228;-50
2022/11/15 11:37:32;;;;;;;12.03;10.13;;;10.00;99.90;;;;;;5014720;28;20628;-51
2022/11/15 11:40:11;;;;;;;14.43;9.70;;;10.10;99.90;;;;;;5013933;28;20209;-55
2022/11/15 11:42:47;;;;;;;11.40;9.40;;;10.20;99.90;;;;;;5005601;28;20197;-49
2022/11/15 11:45:25;;;;;;;11.73;9.17;;;10.20;99.90;;;;;;5015027;28;20229;-51
2022/11/15 11:48:00;;;;;;;10.63;8.70;;;10.20;99.90;;;;;;5013814;28;20188;-52
2022/11/15 11:50:28;;;;;;;15.63;9.23;;;10.30;99.90;;;;;;5001917;28;20214;-52
2022/11/15 11:53:28;;;;;;;13.80;10.10;;;10.30;99.90;;;;;;5017146;28;20232;-49
2022/11/15 11:56:02;;;;;;;11.87;8.80;;;10.40;99.90;;;;;;5008543;28;20214;-49
2022/11/15 11:58:36;;;;;;;10.57;8.30;;;10.40;99.90;;;;;;5012569;28;20200;-54
2022/11/15 12:01:17;;;;;;;11.67;8.83;;;10.40;99.90;;;;;;5016508;28;20202;-48
2022/11/15 12:03:48;;;;;;;10.83;9.03;;;10.40;99.90;;;;;;5004247;28;20436;-50
2022/11/15 12:06:22;;;;;;;10.13;8.67;;;10.50;99.90;;;;;;5003486;28;20231;-48
2022/11/15 12:09:00;;;;;;;11.00;8.73;;;10.50;99.90;;;;;;5012891;28;20197;-52
2022/11/15 12:11:35;;;;;;;10.67;9.00;;;10.50;99.90;;;;;;5003650;28;20208;-53
2022/11/15 12:14:09;;;;;;;11.20;9.27;;;10.60;99.90;;;;;;5014358;28;20230;-50
2022/11/15 12:16:41;;;;;;;12.23;8.97;;;10.60;99.90;;;;;;5014965;28;20204;-52
2022/11/15 12:19:09;;;;;;;10.63;9.13;;;10.60;99.90;;;;;;5020337;28;20235;-48
2022/11/15 12:21:42;;;;;;;12.27;8.47;;;10.70;99.90;;;;;;5000343;28;20215;-53
2022/11/15 12:24:16;;;;;;;10.37;8.63;;;10.70;99.90;;;;;;5022965;28;20299;-54
2022/11/15 12:27:17;;;;;;;10.33;8.93;;;10.70;99.90;;;;;;5015566;28;20235;-48
2022/11/15 12:29:49;;;;;;;12.00;8.63;;;10.80;99.90;;;;;;5017087;28;20195;-53
2022/11/15 12:32:26;;;;;;;12.10;9.00;;;10.80;99.90;;;;;;5016311;28;20632;-50
2022/11/15 12:34:55;;;;;;;10.60;8.83;;;10.80;99.90;;;;;;5010265;28;20229;-50
2022/11/15 12:37:54;;;;;;;10.57;8.30;;;10.90;99.90;;;;;;5000083;28;20208;-55
2022/11/15 12:40:25;;;;;;;11.13;8.83;;;11.00;99.90;;;;;;5024158;28;20690;-55
2022/11/15 12:43:01;;;;;;;11.13;8.97;;;11.00;99.90;;;;;;5017839;28;20278;-50
2022/11/15 12:45:30;;;;;;;11.57;8.47;;;11.10;99.90;;;;;;5010854;28;20215;-51
2022/11/15 12:48:43;;;;;;;17.70;9.17;;;11.10;99.90;;;;;;5017787;28;20196;-50
2022/11/15 12:51:10;;;;;;;10.30;8.10;;;11.20;99.90;;;;;;5010388;28;20212;-50
2022/11/15 12:53:37;;;;;;;9.63;8.40;;;11.10;99.90;;;;;;4999515;28;20786;-53
2022/11/15 12:56:22;;;;;;;9.23;8.23;;;11.20;99.90;;;;;;5016943;28;20242;-50
2022/11/15 12:58:53;;;;;;;11.93;7.53;;;11.20;99.90;;;;;;5011050;28;20206;-51
2022/11/15 13:01:59;;;;;;;12.37;7.93;;;11.30;99.90;;;;;;5016135;28;20188;-53
2022/11/15 13:04:29;;;;;;;9.83;8.40;;;11.30;99.90;;;;;;5018474;28;20589;-54
2022/11/15 13:06:58;;;;;;;9.70;7.73;;;11.40;99.90;;;;;;5013052;28;20200;-52
2022/11/15 13:09:54;;;;;;;10.50;7.60;;;11.30;99.90;;;;;;5002385;28;20207;-52
2022/11/15 13:12:55;;;;;;;11.57;7.70;;;11.40;99.90;;;;;;5018287;28;20668;-51
2022/11/15 13:15:34;;;;;;;11.77;8.07;;;11.40;99.90;;;;;;5013999;28;20290;-53
2022/11/15 13:18:27;;;;;;;13.50;7.73;;;11.50;99.90;;;;;;5018802;28;20302;-51
2022/11/15 13:20:54;;;;;;;10.77;8.00;;;11.50;99.90;;;;;;5015525;28;20199;-51
2022/11/15 13:23:23;;;;;;;11.13;8.10;;;11.50;99.90;;;;;;4997799;28;20683;-51
2022/11/15 13:26:06;;;;;;;9.53;7.97;;;11.50;99.90;;;;;;5016673;28;20203;-47
2022/11/15 13:28:39;;;;;;;10.57;7.67;;;11.60;99.90;;;;;;5007795;28;20204;-49
2022/11/15 13:31:30;;;;;;;10.83;7.70;;;11.60;99.90;;;;;;5014351;28;20211;-49
2022/11/15 13:34:00;;;;;;;9.60;7.93;;;11.70;99.90;;;;;;5009725;28;20298;-47
2022/11/15 13:36:29;;;;;;;8.67;7.50;;;11.70;99.90;;;;;;5009099;28;20211;-53
2022/11/15 13:38:58;;;;;;;8.77;7.83;;;11.70;99.90;;;;;;4993827;28;20238;-51
2022/11/15 13:41:27;;;;;;;8.73;7.07;;;11.70;99.90;;;;;;4994834;28;20196;-53
2022/11/15 13:43:57;;;;;;;9.03;7.40;;;11.90;99.90;;;;;;5015295;28;20219;-55
2022/11/15 13:46:25;;;;;;;8.90;7.33;;;11.90;99.90;;;;;;5001713;28;22521;-52
2022/11/15 13:48:55;;;;;;;10.33;7.50;;;11.80;99.90;;;;;;5020674;28;20208;-51
2022/11/15 13:51:29;;;;;;;9.83;7.53;;;11.90;99.90;;;;;;5009201;28;20433;-59
2022/11/15 13:54:01;;;;;;;9.80;7.80;;;12.00;99.90;;;;;;5011009;28;20258;-50
2022/11/15 13:56:32;;;;;;;8.73;7.13;;;12.10;99.90;;;;;;4989453;28;21842;-53
2022/11/15 13:59:00;;;;;;;10.33;7.33;;;12.20;99.90;;;;;;5010875;28;20199;-53
2022/11/15 14:01:32;;;;;;;8.93;7.60;;;12.20;99.90;;;;;;5006240;28;20197;-52
2022/11/15 14:04:01;;;;;;;10.00;8.00;;;12.30;99.90;;;;;;5016410;28;20216;-50
2022/11/15 14:06:30;;;;;;;8.00;7.20;;;12.30;99.90;;;;;;5006758;28;20209;-55
2022/11/15 14:09:36;;;;;;;9.10;6.60;;;12.30;99.90;;;;;;5021820;28;20601;-51
2022/11/15 14:12:24;;;;;;;7.93;6.80;;;12.30;99.90;;;;;;4994917;28;20199;-55
2022/11/15 14:14:54;;;;;;;7.73;7.03;;;12.30;99.90;;;;;;5011147;28;20289;-51
2022/11/15 14:17:33;;;;;;;9.13;6.70;;;12.40;99.90;;;;;;4997971;28;20192;-52
2022/11/15 14:20:01;;;;;;;8.63;6.10;;;12.40;99.90;;;;;;5002698;28;20215;-53